sensor_id;sensor_type;location;lat;lon;timestamp;pressure;altitude;pressure_sealevel;temperature;humidity
30343;BME280;17145;49.902;8.680;'2023-03-13 00:59:24';99420;;;9;49
30343;BME280;17145;49.902;8.680;'2023-03-13 01:01:52';99410;;;9;48
30343;BME280;17145;49.902;8.680;'2023-03-13 01:04:20';99410;;;9;48
30343;BME280;17145;49.902;8.680;'2023-03-13 01:06:47';99410;;;9;48
30343;BME280;17145;49.902;8.680;'2023-03-13 01:09:15';99400;;;9;48
30343;BME280;17145;49.902;8.680;'2023-03-13 01:11:44';99400;;;9;48
30343;BME280;17145;49.902;8.680;'2023-03-13 01:14:12';99390;;;9;48
30343;BME280;17145;49.902;8.680;'2023-03-13 01:16:40';99390;;;9;48
30343;BME280;17145;49.902;8.680;'2023-03-13 01:19:08';99380;;;9;48
30343;BME280;17145;49.902;8.680;'2023-03-13 01:21:36';99380;;;9;48
30343;BME280;17145;49.902;8.680;'2023-03-13 01:24:03';99370;;;9;48
30343;BME280;17145;49.902;8.680;'2023-03-13 01:26:31';99370;;;9;49
30343;BME280;17145;49.902;8.680;'2023-03-13 01:28:58';99370;;;9;48
30343;BME280;17145;49.902;8.680;'2023-03-13 01:31:28';99370;;;9;49
30343;BME280;17145;49.902;8.680;'2023-03-13 01:33:58';99360;;;9;48
30343;BME280;17145;49.902;8.680;'2023-03-13 01:36:28';99360;;;10;48
30343;BME280;17145;49.902;8.680;'2023-03-13 01:38:56';99360;;;10;48
30343;BME280;17145;49.902;8.680;'2023-03-13 01:41:26';99360;;;10;48
30343;BME280;17145;49.902;8.680;'2023-03-13 01:43:54';99350;;;9;48
30343;BME280;17145;49.902;8.680;'2023-03-13 01:46:23';99340;;;9;48
30343;BME280;17145;49.902;8.680;'2023-03-13 01:48:51';99340;;;10;48
30343;BME280;17145;49.902;8.680;'2023-03-13 01:51:20';99330;;;9;48
30343;BME280;17145;49.902;8.680;'2023-03-13 01:53:47';99340;;;10;48
30343;BME280;17145;49.902;8.680;'2023-03-13 01:56:17';99330;;;10;48
30343;BME280;17145;49.902;8.680;'2023-03-13 01:58:46';99330;;;10;48
30343;BME280;17145;49.902;8.680;'2023-03-13 02:01:17';99320;;;9;48
30343;BME280;17145;49.902;8.680;'2023-03-13 02:03:46';99310;;;9;48
30343;BME280;17145;49.902;8.680;'2023-03-13 02:06:17';99310;;;10;48
30343;BME280;17145;49.902;8.680;'2023-03-13 02:08:44';99300;;;9;48
30343;BME280;17145;49.902;8.680;'2023-03-13 02:11:13';99290;;;10;47
30343;BME280;17145;49.902;8.680;'2023-03-13 02:13:42';99290;;;9;47
30343;BME280;17145;49.902;8.680;'2023-03-13 02:16:12';99280;;;10;48
30343;BME280;17145;49.902;8.680;'2023-03-13 02:18:42';99280;;;9;48
30343;BME280;17145;49.902;8.680;'2023-03-13 02:21:10';99280;;;9;48
30343;BME280;17145;49.902;8.680;'2023-03-13 02:23:38';99270;;;9;49
30343;BME280;17145;49.902;8.680;'2023-03-13 02:26:07';99260;;;9;48
30343;BME280;17145;49.902;8.680;'2023-03-13 02:28:35';99260;;;9;48
30343;BME280;17145;49.902;8.680;'2023-03-13 02:31:11';99250;;;10;48
30343;BME280;17145;49.902;8.680;'2023-03-13 02:33:38';99250;;;9;49
30343;BME280;17145;49.902;8.680;'2023-03-13 02:36:07';99250;;;10;48
30343;BME280;17145;49.902;8.680;'2023-03-13 02:38:34';99250;;;10;48
30343;BME280;17145;49.902;8.680;'2023-03-13 02:41:02';99250;;;9;49
30343;BME280;17145;49.902;8.680;'2023-03-13 02:43:31';99230;;;10;48
30343;BME280;17145;49.902;8.680;'2023-03-13 02:46:03';99230;;;9;48
30343;BME280;17145;49.902;8.680;'2023-03-13 02:48:36';99230;;;10;48
30343;BME280;17145;49.902;8.680;'2023-03-13 02:51:09';99220;;;10;48
30343;BME280;17145;49.902;8.680;'2023-03-13 02:53:40';99230;;;10;48
30343;BME280;17145;49.902;8.680;'2023-03-13 02:56:12';99210;;;10;48
30343;BME280;17145;49.902;8.680;'2023-03-13 02:58:40';99210;;;10;48
30343;BME280;17145;49.902;8.680;'2023-03-13 03:01:08';99200;;;10;48
30343;BME280;17145;49.902;8.680;'2023-03-13 03:03:36';99210;;;10;49
30343;BME280;17145;49.902;8.680;'2023-03-13 03:06:06';99190;;;10;49
30343;BME280;17145;49.902;8.680;'2023-03-13 03:08:39';99180;;;10;49
30343;BME280;17145;49.902;8.680;'2023-03-13 03:11:17';99180;;;10;48
30343;BME280;17145;49.902;8.680;'2023-03-13 03:13:46';99180;;;10;49
30343;BME280;17145;49.902;8.680;'2023-03-13 03:16:14';99190;;;10;49
30343;BME280;17145;49.902;8.680;'2023-03-13 03:18:42';99180;;;10;49
30343;BME280;17145;49.902;8.680;'2023-03-13 03:21:19';99180;;;10;49
30343;BME280;17145;49.902;8.680;'2023-03-13 03:23:54';99180;;;9;50
30343;BME280;17145;49.902;8.680;'2023-03-13 03:26:21';99160;;;9;51
30343;BME280;17145;49.902;8.680;'2023-03-13 03:28:49';99170;;;10;51
30343;BME280;17145;49.902;8.680;'2023-03-13 03:31:17';99160;;;10;51
30343;BME280;17145;49.902;8.680;'2023-03-13 03:33:44';99160;;;10;51
30343;BME280;17145;49.902;8.680;'2023-03-13 03:36:15';99160;;;10;51
30343;BME280;17145;49.902;8.680;'2023-03-13 03:38:50';99150;;;10;50
30343;BME280;17145;49.902;8.680;'2023-03-13 03:41:20';99150;;;10;50
30343;BME280;17145;49.902;8.680;'2023-03-13 03:43:47';99140;;;10;50
30343;BME280;17145;49.902;8.680;'2023-03-13 03:46:17';99150;;;9;51
30343;BME280;17145;49.902;8.680;'2023-03-13 03:48:47';99140;;;10;51
30343;BME280;17145;49.902;8.680;'2023-03-13 03:51:21';99130;;;10;51
30343;BME280;17145;49.902;8.680;'2023-03-13 03:53:51';99140;;;10;51
30343;BME280;17145;49.902;8.680;'2023-03-13 03:56:24';99120;;;10;52
30343;BME280;17145;49.902;8.680;'2023-03-13 03:58:52';99110;;;10;52
30343;BME280;17145;49.902;8.680;'2023-03-13 04:01:20';99100;;;10;52
30343;BME280;17145;49.902;8.680;'2023-03-13 04:03:48';99090;;;10;52
30343;BME280;17145;49.902;8.680;'2023-03-13 04:06:15';99090;;;10;52
30343;BME280;17145;49.902;8.680;'2023-03-13 04:08:43';99090;;;9;53
30343;BME280;17145;49.902;8.680;'2023-03-13 04:11:11';99100;;;10;52
30343;BME280;17145;49.902;8.680;'2023-03-13 04:13:38';99100;;;10;53
30343;BME280;17145;49.902;8.680;'2023-03-13 04:16:07';99100;;;9;54
30343;BME280;17145;49.902;8.680;'2023-03-13 04:18:35';99080;;;9;54
30343;BME280;17145;49.902;8.680;'2023-03-13 04:21:04';99080;;;9;54
30343;BME280;17145;49.902;8.680;'2023-03-13 04:23:32';99080;;;9;53
30343;BME280;17145;49.902;8.680;'2023-03-13 04:26:00';99070;;;10;54
30343;BME280;17145;49.902;8.680;'2023-03-13 04:28:28';99080;;;9;53
30343;BME280;17145;49.902;8.680;'2023-03-13 04:30:55';99080;;;9;54
30343;BME280;17145;49.902;8.680;'2023-03-13 04:33:23';99080;;;10;53
30343;BME280;17145;49.902;8.680;'2023-03-13 04:35:50';99080;;;9;54
30343;BME280;17145;49.902;8.680;'2023-03-13 04:38:18';99080;;;9;54
30343;BME280;17145;49.902;8.680;'2023-03-13 04:40:45';99080;;;9;55
30343;BME280;17145;49.902;8.680;'2023-03-13 04:43:13';99080;;;9;56
30343;BME280;17145;49.902;8.680;'2023-03-13 04:45:40';99080;;;9;55
30343;BME280;17145;49.902;8.680;'2023-03-13 04:48:08';99090;;;9;57
30343;BME280;17145;49.902;8.680;'2023-03-13 04:50:35';99080;;;9;57
30343;BME280;17145;49.902;8.680;'2023-03-13 04:53:02';99090;;;9;58
30343;BME280;17145;49.902;8.680;'2023-03-13 04:55:30';99090;;;9;58
30343;BME280;17145;49.902;8.680;'2023-03-13 04:57:57';99080;;;9;58
30343;BME280;17145;49.902;8.680;'2023-03-13 05:00:24';99080;;;9;59
30343;BME280;17145;49.902;8.680;'2023-03-13 05:02:52';99060;;;9;59
30343;BME280;17145;49.902;8.680;'2023-03-13 05:05:20';99070;;;8;59
30343;BME280;17145;49.902;8.680;'2023-03-13 05:07:47';99060;;;9;59
30343;BME280;17145;49.902;8.680;'2023-03-13 05:10:14';99050;;;8;61
30343;BME280;17145;49.902;8.680;'2023-03-13 05:12:42';99050;;;9;60
30343;BME280;17145;49.902;8.680;'2023-03-13 05:15:10';99050;;;9;60
30343;BME280;17145;49.902;8.680;'2023-03-13 05:17:38';99050;;;9;60
30343;BME280;17145;49.902;8.680;'2023-03-13 05:20:06';99050;;;9;59
30343;BME280;17145;49.902;8.680;'2023-03-13 05:22:33';99050;;;9;60
30343;BME280;17145;49.902;8.680;'2023-03-13 05:25:00';99050;;;9;60
30343;BME280;17145;49.902;8.680;'2023-03-13 05:27:28';99060;;;9;60
30343;BME280;17145;49.902;8.680;'2023-03-13 05:29:55';99060;;;9;60
30343;BME280;17145;49.902;8.680;'2023-03-13 05:32:22';99060;;;8;61
30343;BME280;17145;49.902;8.680;'2023-03-13 05:34:50';99060;;;9;60
30343;BME280;17145;49.902;8.680;'2023-03-13 05:37:18';99050;;;9;61
30343;BME280;17145;49.902;8.680;'2023-03-13 05:39:45';99050;;;9;61
30343;BME280;17145;49.902;8.680;'2023-03-13 05:42:13';99050;;;8;62
30343;BME280;17145;49.902;8.680;'2023-03-13 05:44:40';99040;;;9;62
30343;BME280;17145;49.902;8.680;'2023-03-13 05:47:07';99050;;;9;62
30343;BME280;17145;49.902;8.680;'2023-03-13 05:49:35';99040;;;8;63
30343;BME280;17145;49.902;8.680;'2023-03-13 05:52:03';99040;;;9;62
30343;BME280;17145;49.902;8.680;'2023-03-13 05:54:30';99020;;;9;62
30343;BME280;17145;49.902;8.680;'2023-03-13 05:56:58';99010;;;8;63
30343;BME280;17145;49.902;8.680;'2023-03-13 05:59:25';99020;;;8;63
30343;BME280;17145;49.902;8.680;'2023-03-13 06:01:52';99010;;;9;64
30343;BME280;17145;49.902;8.680;'2023-03-13 06:04:20';99020;;;8;63
30343;BME280;17145;49.902;8.680;'2023-03-13 06:06:47';99020;;;9;63
30343;BME280;17145;49.902;8.680;'2023-03-13 06:09:15';99020;;;9;62
30343;BME280;17145;49.902;8.680;'2023-03-13 06:11:42';99000;;;9;63
30343;BME280;17145;49.902;8.680;'2023-03-13 06:14:09';99010;;;9;62
30343;BME280;17145;49.902;8.680;'2023-03-13 06:16:37';99000;;;9;62
30343;BME280;17145;49.902;8.680;'2023-03-13 06:19:04';99010;;;9;62
30343;BME280;17145;49.902;8.680;'2023-03-13 06:21:32';99010;;;9;63
30343;BME280;17145;49.902;8.680;'2023-03-13 06:23:59';99000;;;9;64
30343;BME280;17145;49.902;8.680;'2023-03-13 06:26:27';99000;;;8;64
30343;BME280;17145;49.902;8.680;'2023-03-13 06:28:54';99010;;;9;63
30343;BME280;17145;49.902;8.680;'2023-03-13 06:31:21';98980;;;8;65
30343;BME280;17145;49.902;8.680;'2023-03-13 06:33:49';98970;;;9;64
30343;BME280;17145;49.902;8.680;'2023-03-13 06:36:16';98980;;;9;64
30343;BME280;17145;49.902;8.680;'2023-03-13 06:38:44';98970;;;9;64
30343;BME280;17145;49.902;8.680;'2023-03-13 06:41:11';98970;;;9;63
30343;BME280;17145;49.902;8.680;'2023-03-13 06:43:38';98960;;;9;63
30343;BME280;17145;49.902;8.680;'2023-03-13 06:46:06';98960;;;9;63
30343;BME280;17145;49.902;8.680;'2023-03-13 06:48:34';98970;;;9;64
30343;BME280;17145;49.902;8.680;'2023-03-13 06:51:01';98980;;;9;64
30343;BME280;17145;49.902;8.680;'2023-03-13 06:53:29';98960;;;9;65
30343;BME280;17145;49.902;8.680;'2023-03-13 06:55:56';98980;;;9;64
30343;BME280;17145;49.902;8.680;'2023-03-13 06:58:23';98980;;;9;64
30343;BME280;17145;49.902;8.680;'2023-03-13 07:00:51';99000;;;9;65
30343;BME280;17145;49.902;8.680;'2023-03-13 07:03:18';98990;;;9;65
30343;BME280;17145;49.902;8.680;'2023-03-13 07:05:46';98990;;;9;63
30343;BME280;17145;49.902;8.680;'2023-03-13 07:08:13';98990;;;9;63
30343;BME280;17145;49.902;8.680;'2023-03-13 07:10:41';98990;;;9;63
30343;BME280;17145;49.902;8.680;'2023-03-13 07:13:08';98980;;;10;63
30343;BME280;17145;49.902;8.680;'2023-03-13 07:15:35';98970;;;10;62
30343;BME280;17145;49.902;8.680;'2023-03-13 07:18:03';98970;;;9;64
30343;BME280;17145;49.902;8.680;'2023-03-13 07:20:30';98960;;;9;63
30343;BME280;17145;49.902;8.680;'2023-03-13 07:22:58';98950;;;9;63
30343;BME280;17145;49.902;8.680;'2023-03-13 07:25:25';98950;;;9;64
30343;BME280;17145;49.902;8.680;'2023-03-13 07:27:53';98950;;;9;63
30343;BME280;17145;49.902;8.680;'2023-03-13 07:30:20';98950;;;9;64
30343;BME280;17145;49.902;8.680;'2023-03-13 07:32:48';98950;;;10;63
30343;BME280;17145;49.902;8.680;'2023-03-13 07:35:16';98950;;;10;63
30343;BME280;17145;49.902;8.680;'2023-03-13 07:37:43';98960;;;10;63
30343;BME280;17145;49.902;8.680;'2023-03-13 07:40:11';98960;;;10;62
30343;BME280;17145;49.902;8.680;'2023-03-13 07:42:39';98950;;;10;62
30343;BME280;17145;49.902;8.680;'2023-03-13 07:45:08';98960;;;10;61
30343;BME280;17145;49.902;8.680;'2023-03-13 07:47:35';98960;;;10;61
30343;BME280;17145;49.902;8.680;'2023-03-13 07:50:03';98960;;;10;62
30343;BME280;17145;49.902;8.680;'2023-03-13 07:52:30';98960;;;10;62
30343;BME280;17145;49.902;8.680;'2023-03-13 07:54:58';98950;;;10;61
30343;BME280;17145;49.902;8.680;'2023-03-13 07:57:25';98950;;;10;61
30343;BME280;17145;49.902;8.680;'2023-03-13 07:59:52';98960;;;10;62
30343;BME280;17145;49.902;8.680;'2023-03-13 08:02:20';98940;;;10;61
30343;BME280;17145;49.902;8.680;'2023-03-13 08:04:47';98940;;;10;61
30343;BME280;17145;49.902;8.680;'2023-03-13 08:07:14';98940;;;10;62
30343;BME280;17145;49.902;8.680;'2023-03-13 08:09:42';98950;;;10;61
30343;BME280;17145;49.902;8.680;'2023-03-13 08:12:09';98950;;;10;61
30343;BME280;17145;49.902;8.680;'2023-03-13 08:14:37';98950;;;10;61
30343;BME280;17145;49.902;8.680;'2023-03-13 08:17:04';98950;;;10;61
30343;BME280;17145;49.902;8.680;'2023-03-13 08:19:32';98940;;;10;60
30343;BME280;17145;49.902;8.680;'2023-03-13 08:21:59';98950;;;10;60
30343;BME280;17145;49.902;8.680;'2023-03-13 08:24:27';98960;;;11;60
30343;BME280;17145;49.902;8.680;'2023-03-13 08:26:54';98960;;;10;60
30343;BME280;17145;49.902;8.680;'2023-03-13 08:29:22';98950;;;10;60
30343;BME280;17145;49.902;8.680;'2023-03-13 08:31:49';98960;;;11;60
30343;BME280;17145;49.902;8.680;'2023-03-13 08:34:17';98970;;;11;60
30343;BME280;17145;49.902;8.680;'2023-03-13 08:36:45';98960;;;11;60
30343;BME280;17145;49.902;8.680;'2023-03-13 08:39:12';98960;;;10;60
30343;BME280;17145;49.902;8.680;'2023-03-13 08:41:39';98960;;;10;60
30343;BME280;17145;49.902;8.680;'2023-03-13 08:44:07';98970;;;10;60
30343;BME280;17145;49.902;8.680;'2023-03-13 08:46:34';98960;;;10;61
30343;BME280;17145;49.902;8.680;'2023-03-13 08:49:01';98960;;;9;63
30343;BME280;17145;49.902;8.680;'2023-03-13 08:51:29';98960;;;10;62
30343;BME280;17145;49.902;8.680;'2023-03-13 08:53:56';98950;;;10;61
30343;BME280;17145;49.902;8.680;'2023-03-13 08:56:24';98950;;;10;61
30343;BME280;17145;49.902;8.680;'2023-03-13 08:58:51';98960;;;10;61
30343;BME280;17145;49.902;8.680;'2023-03-13 09:01:21';98940;;;10;61
30343;BME280;17145;49.902;8.680;'2023-03-13 09:03:49';98950;;;11;61
30343;BME280;17145;49.902;8.680;'2023-03-13 09:06:19';98930;;;10;61
30343;BME280;17145;49.902;8.680;'2023-03-13 09:08:46';98930;;;10;62
30343;BME280;17145;49.902;8.680;'2023-03-13 09:11:16';98920;;;10;63
30343;BME280;17145;49.902;8.680;'2023-03-13 09:13:44';98920;;;10;64
30343;BME280;17145;49.902;8.680;'2023-03-13 09:16:13';98930;;;10;64
30343;BME280;17145;49.902;8.680;'2023-03-13 09:18:42';98930;;;10;65
30343;BME280;17145;49.902;8.680;'2023-03-13 09:21:13';98920;;;10;64
30343;BME280;17145;49.902;8.680;'2023-03-13 09:23:40';98920;;;10;64
30343;BME280;17145;49.902;8.680;'2023-03-13 09:26:10';98920;;;10;64
30343;BME280;17145;49.902;8.680;'2023-03-13 09:28:38';98920;;;11;64
30343;BME280;17145;49.902;8.680;'2023-03-13 09:31:08';98920;;;11;63
30343;BME280;17145;49.902;8.680;'2023-03-13 09:33:35';98920;;;10;64
30343;BME280;17145;49.902;8.680;'2023-03-13 09:36:11';98940;;;10;64
30343;BME280;17145;49.902;8.680;'2023-03-13 09:38:40';98940;;;10;63
30343;BME280;17145;49.902;8.680;'2023-03-13 09:41:09';98980;;;11;63
30343;BME280;17145;49.902;8.680;'2023-03-13 09:43:36';98910;;;11;63
30343;BME280;17145;49.902;8.680;'2023-03-13 09:46:04';98920;;;11;64
30343;BME280;17145;49.902;8.680;'2023-03-13 09:48:31';98920;;;10;65
30343;BME280;17145;49.902;8.680;'2023-03-13 09:51:01';98920;;;11;64
30343;BME280;17145;49.902;8.680;'2023-03-13 09:53:28';98940;;;10;64
30343;BME280;17145;49.902;8.680;'2023-03-13 09:55:55';98950;;;10;65
30343;BME280;17145;49.902;8.680;'2023-03-13 09:58:23';98930;;;11;63
30343;BME280;17145;49.902;8.680;'2023-03-13 10:00:52';98940;;;11;62
30343;BME280;17145;49.902;8.680;'2023-03-13 10:03:19';98950;;;10;63
30343;BME280;17145;49.902;8.680;'2023-03-13 10:05:46';98940;;;11;62
30343;BME280;17145;49.902;8.680;'2023-03-13 10:08:14';98940;;;11;61
30343;BME280;17145;49.902;8.680;'2023-03-13 10:10:41';98940;;;11;61
30343;BME280;17145;49.902;8.680;'2023-03-13 10:13:09';98930;;;11;61
30343;BME280;17145;49.902;8.680;'2023-03-13 10:15:36';98940;;;11;63
30343;BME280;17145;49.902;8.680;'2023-03-13 10:18:04';98920;;;11;62
30343;BME280;17145;49.902;8.680;'2023-03-13 10:20:32';98900;;;10;63
30343;BME280;17145;49.902;8.680;'2023-03-13 10:23:00';98920;;;11;62
30343;BME280;17145;49.902;8.680;'2023-03-13 10:25:27';98900;;;11;61
30343;BME280;17145;49.902;8.680;'2023-03-13 10:27:54';98900;;;11;61
30343;BME280;17145;49.902;8.680;'2023-03-13 10:30:22';98890;;;12;60
30343;BME280;17145;49.902;8.680;'2023-03-13 10:32:49';98890;;;11;61
30343;BME280;17145;49.902;8.680;'2023-03-13 10:35:16';98880;;;12;60
30343;BME280;17145;49.902;8.680;'2023-03-13 10:37:44';98890;;;11;59
30343;BME280;17145;49.902;8.680;'2023-03-13 10:40:14';98870;;;12;59
30343;BME280;17145;49.902;8.680;'2023-03-13 10:42:47';98860;;;12;58
30343;BME280;17145;49.902;8.680;'2023-03-13 10:45:21';98870;;;11;59
30343;BME280;17145;49.902;8.680;'2023-03-13 10:47:54';98860;;;12;59
30343;BME280;17145;49.902;8.680;'2023-03-13 10:50:28';98860;;;12;58
30343;BME280;17145;49.902;8.680;'2023-03-13 10:53:03';98860;;;12;57
30343;BME280;17145;49.902;8.680;'2023-03-13 10:55:33';98860;;;12;58
30343;BME280;17145;49.902;8.680;'2023-03-13 10:58:08';98860;;;12;58
30343;BME280;17145;49.902;8.680;'2023-03-13 11:00:38';98860;;;12;57
30343;BME280;17145;49.902;8.680;'2023-03-13 11:03:13';98860;;;13;57
30343;BME280;17145;49.902;8.680;'2023-03-13 11:05:47';98860;;;13;56
30343;BME280;17145;49.902;8.680;'2023-03-13 11:08:17';98860;;;13;55
30343;BME280;17145;49.902;8.680;'2023-03-13 11:10:51';98850;;;13;55
30343;BME280;17145;49.902;8.680;'2023-03-13 11:13:25';98850;;;13;55
30343;BME280;17145;49.902;8.680;'2023-03-13 11:15:58';98840;;;13;55
30343;BME280;17145;49.902;8.680;'2023-03-13 11:18:26';98840;;;14;54
30343;BME280;17145;49.902;8.680;'2023-03-13 11:20:58';98860;;;14;53
30343;BME280;17145;49.902;8.680;'2023-03-13 11:23:36';98860;;;13;53
30343;BME280;17145;49.902;8.680;'2023-03-13 11:26:04';98860;;;13;53
30343;BME280;17145;49.902;8.680;'2023-03-13 11:28:32';98860;;;14;52
30343;BME280;17145;49.902;8.680;'2023-03-13 11:31:06';98860;;;13;53
30343;BME280;17145;49.902;8.680;'2023-03-13 11:33:35';98860;;;13;53
30343;BME280;17145;49.902;8.680;'2023-03-13 11:36:07';98850;;;14;52
30343;BME280;17145;49.902;8.680;'2023-03-13 11:38:47';98860;;;14;52
30343;BME280;17145;49.902;8.680;'2023-03-13 11:41:27';98850;;;13;52
30343;BME280;17145;49.902;8.680;'2023-03-13 11:43:59';98860;;;13;52
30343;BME280;17145;49.902;8.680;'2023-03-13 11:46:29';98860;;;14;52
30343;BME280;17145;49.902;8.680;'2023-03-13 11:49:00';98860;;;14;52
30343;BME280;17145;49.902;8.680;'2023-03-13 11:51:35';98860;;;13;52
30343;BME280;17145;49.902;8.680;'2023-03-13 11:54:12';98850;;;14;52
30343;BME280;17145;49.902;8.680;'2023-03-13 11:56:39';98850;;;13;52
30343;BME280;17145;49.902;8.680;'2023-03-13 11:59:19';98850;;;13;53
30343;BME280;17145;49.902;8.680;'2023-03-13 12:04:25';98830;;;13;53
30343;BME280;17145;49.902;8.680;'2023-03-13 12:07:00';98840;;;13;53
30343;BME280;17145;49.902;8.680;'2023-03-13 12:09:27';98830;;;13;53
30343;BME280;17145;49.902;8.680;'2023-03-13 12:12:00';98830;;;13;53
30343;BME280;17145;49.902;8.680;'2023-03-13 12:14:28';98820;;;14;53
30343;BME280;17145;49.902;8.680;'2023-03-13 12:17:03';98820;;;13;53
30343;BME280;17145;49.902;8.680;'2023-03-13 12:19:46';98810;;;13;53
30343;BME280;17145;49.902;8.680;'2023-03-13 12:22:27';98810;;;13;53
30343;BME280;17145;49.902;8.680;'2023-03-13 12:25:07';98800;;;14;52
30343;BME280;17145;49.902;8.680;'2023-03-13 12:27:42';98790;;;14;52
30343;BME280;17145;49.902;8.680;'2023-03-13 12:30:18';98780;;;14;52
30343;BME280;17145;49.902;8.680;'2023-03-13 12:32:52';98780;;;14;51
30343;BME280;17145;49.902;8.680;'2023-03-13 12:35:35';98780;;;13;51
30343;BME280;17145;49.902;8.680;'2023-03-13 12:38:11';98760;;;14;51
30343;BME280;17145;49.902;8.680;'2023-03-13 12:40:49';98760;;;14;52
30343;BME280;17145;49.902;8.680;'2023-03-13 12:43:30';98750;;;14;51
30343;BME280;17145;49.902;8.680;'2023-03-13 12:46:12';98740;;;14;51
30343;BME280;17145;49.902;8.680;'2023-03-13 12:48:55';98730;;;14;50
30343;BME280;17145;49.902;8.680;'2023-03-13 12:51:32';98720;;;14;50
30343;BME280;17145;49.902;8.680;'2023-03-13 12:54:14';98720;;;14;50
30343;BME280;17145;49.902;8.680;'2023-03-13 12:56:48';98720;;;14;50
30343;BME280;17145;49.902;8.680;'2023-03-13 12:59:30';98710;;;14;50
30343;BME280;17145;49.902;8.680;'2023-03-13 13:02:04';98700;;;14;50
30343;BME280;17145;49.902;8.680;'2023-03-13 13:04:35';98700;;;14;49
30343;BME280;17145;49.902;8.680;'2023-03-13 13:07:11';98680;;;14;49
30343;BME280;17145;49.902;8.680;'2023-03-13 13:09:44';98680;;;14;50
30343;BME280;17145;49.902;8.680;'2023-03-13 13:12:20';98680;;;15;49
30343;BME280;17145;49.902;8.680;'2023-03-13 13:14:54';98680;;;15;49
30343;BME280;17145;49.902;8.680;'2023-03-13 13:17:31';98680;;;15;49
30343;BME280;17145;49.902;8.680;'2023-03-13 13:20:03';98680;;;15;49
30343;BME280;17145;49.902;8.680;'2023-03-13 13:22:37';98670;;;15;49
30343;BME280;17145;49.902;8.680;'2023-03-13 13:25:12';98670;;;14;49
30343;BME280;17145;49.902;8.680;'2023-03-13 13:27:45';98660;;;14;50
30343;BME280;17145;49.902;8.680;'2023-03-13 13:30:26';98640;;;15;49
30343;BME280;17145;49.902;8.680;'2023-03-13 13:33:01';98640;;;16;48
30343;BME280;17145;49.902;8.680;'2023-03-13 13:35:30';98630;;;16;47
30343;BME280;17145;49.902;8.680;'2023-03-13 13:38:07';98640;;;16;46
30343;BME280;17145;49.902;8.680;'2023-03-13 13:40:44';98630;;;16;46
30343;BME280;17145;49.902;8.680;'2023-03-13 13:43:18';98630;;;16;46
30343;BME280;17145;49.902;8.680;'2023-03-13 13:45:58';98610;;;16;46
30343;BME280;17145;49.902;8.680;'2023-03-13 13:48:43';98600;;;16;46
30343;BME280;17145;49.902;8.680;'2023-03-13 13:51:23';98610;;;15;47
30343;BME280;17145;49.902;8.680;'2023-03-13 13:54:04';98610;;;15;47
30343;BME280;17145;49.902;8.680;'2023-03-13 13:56:45';98600;;;16;46
30343;BME280;17145;49.902;8.680;'2023-03-13 13:59:19';98580;;;15;47
30343;BME280;17145;49.902;8.680;'2023-03-13 14:01:51';98590;;;16;46
30343;BME280;17145;49.902;8.680;'2023-03-13 14:04:22';98580;;;15;47
30343;BME280;17145;49.902;8.680;'2023-03-13 14:06:54';98570;;;15;47
30343;BME280;17145;49.902;8.680;'2023-03-13 14:09:24';98580;;;15;47
30343;BME280;17145;49.902;8.680;'2023-03-13 14:14:40';98550;;;16;47
30343;BME280;17145;49.902;8.680;'2023-03-13 14:17:19';98540;;;16;47
30343;BME280;17145;49.902;8.680;'2023-03-13 14:22:33';98540;;;16;46
30343;BME280;17145;49.902;8.680;'2023-03-13 14:30:25';98510;;;16;45
30343;BME280;17145;49.902;8.680;'2023-03-13 14:32:54';98500;;;16;45
30343;BME280;17145;49.902;8.680;'2023-03-13 14:38:03';98480;;;17;43
30343;BME280;17145;49.902;8.680;'2023-03-13 14:40:31';98460;;;17;43
30343;BME280;17145;49.902;8.680;'2023-03-13 14:43:01';98450;;;17;43
30343;BME280;17145;49.902;8.680;'2023-03-13 14:45:31';98450;;;17;43
30343;BME280;17145;49.902;8.680;'2023-03-13 14:51:08';98440;;;18;42
30343;BME280;17145;49.902;8.680;'2023-03-13 14:56:25';98420;;;19;40
30343;BME280;17145;49.902;8.680;'2023-03-13 14:58:56';98420;;;18;40
30343;BME280;17145;49.902;8.680;'2023-03-13 15:01:24';98410;;;18;40
30343;BME280;17145;49.902;8.680;'2023-03-13 15:03:58';98390;;;18;40
30343;BME280;17145;49.902;8.680;'2023-03-13 15:06:30';98390;;;18;40
30343;BME280;17145;49.902;8.680;'2023-03-13 15:09:08';98390;;;18;39
30343;BME280;17145;49.902;8.680;'2023-03-13 15:11:38';98370;;;18;40
30343;BME280;17145;49.902;8.680;'2023-03-13 15:14:08';98380;;;18;39
30343;BME280;17145;49.902;8.680;'2023-03-13 15:16:36';98370;;;19;39
30343;BME280;17145;49.902;8.680;'2023-03-13 15:19:04';98360;;;20;37
30343;BME280;17145;49.902;8.680;'2023-03-13 15:21:31';98340;;;21;35
30343;BME280;17145;49.902;8.680;'2023-03-13 15:23:59';98350;;;22;34
30343;BME280;17145;49.902;8.680;'2023-03-13 15:26:28';98340;;;22;33
30343;BME280;17145;49.902;8.680;'2023-03-13 15:28:58';98340;;;22;33
30343;BME280;17145;49.902;8.680;'2023-03-13 15:31:28';98330;;;22;32
30343;BME280;17145;49.902;8.680;'2023-03-13 15:33:58';98330;;;23;32
30343;BME280;17145;49.902;8.680;'2023-03-13 15:36:26';98320;;;23;31
30343;BME280;17145;49.902;8.680;'2023-03-13 15:38:56';98300;;;24;30
30343;BME280;17145;49.902;8.680;'2023-03-13 15:41:29';98290;;;24;30
30343;BME280;17145;49.902;8.680;'2023-03-13 15:44:03';98280;;;25;29
30343;BME280;17145;49.902;8.680;'2023-03-13 15:46:33';98260;;;25;29
30343;BME280;17145;49.902;8.680;'2023-03-13 15:49:12';98250;;;25;29
30343;BME280;17145;49.902;8.680;'2023-03-13 15:54:17';98250;;;25;28
30343;BME280;17145;49.902;8.680;'2023-03-13 15:56:44';98250;;;25;27
30343;BME280;17145;49.902;8.680;'2023-03-13 15:59:16';98250;;;24;28
30343;BME280;17145;49.902;8.680;'2023-03-13 16:01:45';98250;;;24;29
30343;BME280;17145;49.902;8.680;'2023-03-13 16:04:12';98230;;;23;29